Terminal Aerodrome Forecast
Issued by NWS

Current Version | Previous Version | Graphics & Text | Print | Product List | Glossary On
Versions: 1 2 3 4 5 6 7 8 9 10 11 12 13 14 15 16 17
096
FTUS41 KILN 201002 AAB
TAFLUK
TAF AMD
KLUK 201002Z 2010/2106 00000KT 1/4SM FG VV002
     FM201200 00000KT 3SM BR FEW250
     FM201400 17004KT P6SM FEW250
     FM210000 15003KT P6SM SCT250
     FM210300 00000KT 2SM BR SCT250=

USA.gov is the U.S. government's official web portal to all federal, state and local government web resources and services.